
Distance (Route):
Temperature : -40.2°C
Humidity : 0%
Pressure : 0hPa| Receiver | Frames | First received | Last received |
|---|---|---|---|
| WB7NNF | 346 | 2026-09-04 17:45:17 | 2026-09-04 19:52:48 |
| Receiver | Date | Latitude | Longitude | Direction | Speed | Altitude | Climb | Temperature | Humidity | Pressure | Voltage | Killtimer | Uptime | BKT | XDATA |
|---|---|---|---|---|---|---|---|---|---|---|---|---|---|---|---|
| WB7NNF | 2026-09-04 19:52:48 | 48.38931 | -117.41117 | 20° | 91km/h | 9542m | -6.9m/s | -40.2°C | 0% | 0hPa | 0V | 00:00:00 | 00:00:00 | 00:00:00 | |
| WB7NNF | 2026-09-04 19:52:18 | 48.38276 | -117.41467 | 23° | 89km/h | 9721m | -5.8m/s | -41.2°C | 0% | 0hPa | 0V | 00:00:00 | 00:00:00 | 00:00:00 | |
| WB7NNF | 2026-09-04 19:51:09 | 48.36918 | -117.42065 | 15° | 84km/h | 10147m | -6.2m/s | -41.1°C | 0% | 0hPa | 0V | 00:00:00 | 00:00:00 | 00:00:00 | |
| WB7NNF | 2026-09-04 19:50:47 | 48.36445 | -117.42217 | 15° | 91km/h | 10289m | -6.2m/s | -42.0°C | 0% | 0hPa | 0V | 00:00:00 | 00:00:00 | 00:00:00 | |
| WB7NNF | 2026-09-04 19:50:26 | 48.35957 | -117.42412 | 18° | 97km/h | 10420m | -6.0m/s | -42.1°C | 0% | 0hPa | 0V | 00:00:00 | 00:00:00 | 00:00:00 | |
| WB7NNF | 2026-09-04 19:50:06 | 48.35492 | -117.42679 | 26° | 88km/h | 10550m | -6.2m/s | -41.8°C | 0% | 0hPa | 0V | 00:00:00 | 00:00:00 | 00:00:00 | |
| WB7NNF | 2026-09-04 19:49:45 | 48.35125 | -117.42956 | 28° | 75km/h | 10669m | -6.1m/s | -42.2°C | 0% | 0hPa | 0V | 00:00:00 | 00:00:00 | 00:00:00 | |
| WB7NNF | 2026-09-04 19:49:04 | 48.34464 | -117.43517 | 29° | 66km/h | 10899m | -5.5m/s | -41.3°C | 0% | 0hPa | 0V | 00:00:00 | 00:00:00 | 00:00:00 | |
| WB7NNF | 2026-09-04 19:48:44 | 48.34154 | -117.43704 | 19° | 62km/h | 11015m | -5.7m/s | -41.3°C | 0% | 0hPa | 0V | 00:00:00 | 00:00:00 | 00:00:00 | |
| WB7NNF | 2026-09-04 19:48:22 | 48.33812 | -117.43842 | 15° | 69km/h | 11130m | -5.2m/s | -41.8°C | 0% | 0hPa | 0V | 00:00:00 | 00:00:00 | 00:00:00 | |
| WB7NNF | 2026-09-04 19:47:42 | 48.33058 | -117.44102 | 11° | 77km/h | 11349m | -5.5m/s | -43.2°C | 0% | 0hPa | 0V | 00:00:00 | 00:00:00 | 00:00:00 | |
| WB7NNF | 2026-09-04 19:47:21 | 48.32666 | -117.44233 | 16° | 80km/h | 11457m | -5.5m/s | -43.7°C | 0% | 0hPa | 0V | 00:00:00 | 00:00:00 | 00:00:00 | |
| WB7NNF | 2026-09-04 19:47:01 | 48.32279 | -117.44450 | 24° | 73km/h | 11575m | -5.7m/s | -42.4°C | 0% | 0hPa | 0V | 00:00:00 | 00:00:00 | 00:00:00 | |
| WB7NNF | 2026-09-04 19:46:40 | 48.31948 | -117.44609 | 16° | 68km/h | 11688m | -5.5m/s | -42.7°C | 0% | 0hPa | 0V | 00:00:00 | 00:00:00 | 00:00:00 | |
| WB7NNF | 2026-09-04 19:46:20 | 48.31597 | -117.44783 | 24° | 68km/h | 11806m | -5.4m/s | -42.8°C | 0% | 0hPa | 0V | 00:00:00 | 00:00:00 | 00:00:00 | |
| WB7NNF | 2026-09-04 19:45:59 | 48.31292 | -117.45002 | 28° | 66km/h | 11914m | -5.2m/s | -43.2°C | 0% | 0hPa | 0V | 00:00:00 | 00:00:00 | 00:00:00 | |
| WB7NNF | 2026-09-04 19:45:39 | 48.30997 | -117.45197 | 22° | 57km/h | 12027m | -5.3m/s | -43.4°C | 0% | 0hPa | 0V | 00:00:00 | 00:00:00 | 00:00:00 | |
| WB7NNF | 2026-09-04 19:45:18 | 48.30703 | -117.45344 | 16° | 66km/h | 12133m | -5.1m/s | -44.0°C | 0% | 0hPa | 0V | 00:00:00 | 00:00:00 | 00:00:00 | |
| WB7NNF | 2026-09-04 19:44:58 | 48.30360 | -117.45472 | 16° | 66km/h | 12241m | -5.2m/s | -44.6°C | 0% | 0hPa | 0V | 00:00:00 | 00:00:00 | 00:00:00 | |
| WB7NNF | 2026-09-04 19:44:37 | 48.30035 | -117.45614 | 20° | 66km/h | 12347m | -5.4m/s | -44.9°C | 0% | 0hPa | 0V | 00:00:00 | 00:00:00 | 00:00:00 | |
| WB7NNF | 2026-09-04 19:44:17 | 48.29725 | -117.45782 | 18° | 60km/h | 12460m | -5.5m/s | -44.7°C | 0% | 0hPa | 0V | 00:00:00 | 00:00:00 | 00:00:00 | |
| WB7NNF | 2026-09-04 19:43:56 | 48.29419 | -117.45934 | 19° | 69km/h | 12569m | -5.5m/s | -44.2°C | 0% | 0hPa | 0V | 00:00:00 | 00:00:00 | 00:00:00 | |
| WB7NNF | 2026-09-04 19:43:36 | 48.29080 | -117.46104 | 18° | 66km/h | 12685m | -5.5m/s | -44.1°C | 0% | 0hPa | 0V | 00:00:00 | 00:00:00 | 00:00:00 | |
| WB7NNF | 2026-09-04 19:43:15 | 48.28753 | -117.46257 | 19° | 62km/h | 12801m | -5.6m/s | -45.1°C | 0% | 0hPa | 0V | 00:00:00 | 00:00:00 | 00:00:00 | |
| WB7NNF | 2026-09-04 19:42:54 | 48.28452 | -117.46390 | 17° | 60km/h | 12914m | -5.7m/s | -45.0°C | 0% | 0hPa | 0V | 00:00:00 | 00:00:00 | 00:00:00 | |
| WB7NNF | 2026-09-04 19:42:34 | 48.28154 | -117.46528 | 20° | 55km/h | 13037m | -5.6m/s | -45.6°C | 0% | 0hPa | 0V | 00:00:00 | 00:00:00 | 00:00:00 | |
| WB7NNF | 2026-09-04 19:42:13 | 48.27914 | -117.46684 | 27° | 49km/h | 13155m | -5.9m/s | -46.2°C | 0% | 0hPa | 0V | 00:00:00 | 00:00:00 | 00:00:00 | |
| WB7NNF | 2026-09-04 19:41:53 | 48.27671 | -117.46838 | 22° | 51km/h | 13280m | -5.9m/s | -46.3°C | 0% | 0hPa | 0V | 00:00:00 | 00:00:00 | 00:00:00 | |
| WB7NNF | 2026-09-04 19:41:32 | 48.27433 | -117.46960 | 17° | 47km/h | 13402m | -6.1m/s | -46.8°C | 0% | 0hPa | 0V | 00:00:00 | 00:00:00 | 00:00:00 | |
| WB7NNF | 2026-09-04 19:41:12 | 48.27190 | -117.47072 | 17° | 49km/h | 13535m | -6.2m/s | -47.2°C | 0% | 0hPa | 0V | 00:00:00 | 00:00:00 | 00:00:00 | |
| WB7NNF | 2026-09-04 19:40:51 | 48.26938 | -117.47154 | 11° | 49km/h | 13664m | -6.7m/s | -47.6°C | 0% | 0hPa | 0V | 00:00:00 | 00:00:00 | 00:00:00 | |
| WB7NNF | 2026-09-04 19:40:31 | 48.26645 | -117.47228 | 12° | 60km/h | 13802m | -6.5m/s | -48.0°C | 0% | 0hPa | 0V | 00:00:00 | 00:00:00 | 00:00:00 | |
| WB7NNF | 2026-09-04 19:40:10 | 48.26358 | -117.47323 | 14° | 55km/h | 13931m | -6.4m/s | -48.5°C | 0% | 0hPa | 0V | 00:00:00 | 00:00:00 | 00:00:00 | |
| WB7NNF | 2026-09-04 19:39:50 | 48.26063 | -117.47474 | 21° | 62km/h | 14066m | -6.3m/s | -48.4°C | 0% | 0hPa | 0V | 00:00:00 | 00:00:00 | 00:00:00 | |
| WB7NNF | 2026-09-04 19:39:29 | 48.25762 | -117.47603 | 17° | 64km/h | 14193m | -6.4m/s | -48.2°C | 0% | 0hPa | 0V | 00:00:00 | 00:00:00 | 00:00:00 | |
| WB7NNF | 2026-09-04 19:39:09 | 48.25447 | -117.47742 | 16° | 60km/h | 14327m | -6.3m/s | -48.2°C | 0% | 0hPa | 0V | 00:00:00 | 00:00:00 | 00:00:00 | |
| WB7NNF | 2026-09-04 19:38:48 | 48.25166 | -117.47848 | 13° | 55km/h | 14452m | -6.2m/s | -48.4°C | 0% | 0hPa | 0V | 00:00:00 | 00:00:00 | 00:00:00 | |
| WB7NNF | 2026-09-04 19:38:28 | 48.24888 | -117.47918 | 5° | 53km/h | 14584m | -6.1m/s | -49.0°C | 0% | 0hPa | 0V | 00:00:00 | 00:00:00 | 00:00:00 | |
| WB7NNF | 2026-09-04 19:38:07 | 48.24596 | -117.47967 | 10° | 58km/h | 14720m | -6.3m/s | -49.7°C | 0% | 0hPa | 0V | 00:00:00 | 00:00:00 | 00:00:00 | |
| WB7NNF | 2026-09-04 19:37:46 | 48.24335 | -117.48052 | 14° | 49km/h | 14850m | -6.6m/s | -50.2°C | 0% | 0hPa | 0V | 00:00:00 | 00:00:00 | 00:00:00 | |
| WB7NNF | 2026-09-04 19:37:26 | 48.24063 | -117.48116 | 3° | 55km/h | 14992m | -6.7m/s | -50.1°C | 0% | 0hPa | 0V | 00:00:00 | 00:00:00 | 00:00:00 | |
| WB7NNF | 2026-09-04 19:37:05 | 48.23760 | -117.48092 | 355° | 64km/h | 15126m | -7.0m/s | -49.9°C | 0% | 0hPa | 0V | 00:00:00 | 00:00:00 | 00:00:00 | |
| WB7NNF | 2026-09-04 19:36:45 | 48.23412 | -117.48028 | 357° | 68km/h | 15271m | -6.9m/s | -49.9°C | 0% | 0hPa | 0V | 00:00:00 | 00:00:00 | 00:00:00 | |
| WB7NNF | 2026-09-04 19:36:24 | 48.23084 | -117.48032 | 2° | 60km/h | 15412m | -7.2m/s | -49.4°C | 0% | 0hPa | 0V | 00:00:00 | 00:00:00 | 00:00:00 | |
| WB7NNF | 2026-09-04 19:36:04 | 48.22793 | -117.48131 | 24° | 57km/h | 15562m | -7.1m/s | -49.2°C | 0% | 0hPa | 0V | 00:00:00 | 00:00:00 | 00:00:00 | |
| WB7NNF | 2026-09-04 19:35:43 | 48.22564 | -117.48316 | 31° | 44km/h | 15707m | -7.2m/s | -48.5°C | 0% | 0hPa | 0V | 00:00:00 | 00:00:00 | 00:00:00 | |
| WB7NNF | 2026-09-04 19:35:23 | 48.22391 | -117.48427 | 19° | 33km/h | 15856m | -7.1m/s | -48.9°C | 0% | 0hPa | 0V | 00:00:00 | 00:00:00 | 00:00:00 | |
| WB7NNF | 2026-09-04 19:35:02 | 48.22220 | -117.48477 | 11° | 38km/h | 16003m | -7.4m/s | -49.7°C | 0% | 0hPa | 0V | 00:00:00 | 00:00:00 | 00:00:00 | |
| WB7NNF | 2026-09-04 19:34:42 | 48.22001 | -117.48524 | 1° | 42km/h | 16165m | -7.9m/s | -50.1°C | 0% | 0hPa | 0V | 00:00:00 | 00:00:00 | 00:00:00 | |
| WB7NNF | 2026-09-04 19:34:21 | 48.21741 | -117.48524 | 3° | 58km/h | 16323m | -8.0m/s | -50.5°C | 0% | 0hPa | 0V | 00:00:00 | 00:00:00 | 00:00:00 | |
| WB7NNF | 2026-09-04 19:34:01 | 48.21410 | -117.48575 | 11° | 68km/h | 16489m | -7.8m/s | -51.2°C | 0% | 0hPa | 0V | 00:00:00 | 00:00:00 | 00:00:00 | |
| WB7NNF | 2026-09-04 19:33:40 | 48.21089 | -117.48688 | 11° | 58km/h | 16651m | -8.2m/s | -50.6°C | 0% | 0hPa | 0V | 00:00:00 | 00:00:00 | 00:00:00 | |
| WB7NNF | 2026-09-04 19:33:20 | 48.20811 | -117.48779 | 24° | 53km/h | 16824m | -8.0m/s | -50.4°C | 0% | 0hPa | 0V | 00:00:00 | 00:00:00 | 00:00:00 | |
| WB7NNF | 2026-09-04 19:32:59 | 48.20562 | -117.48927 | 18° | 49km/h | 16994m | -8.3m/s | -49.8°C | 0% | 0hPa | 0V | 00:00:00 | 00:00:00 | 00:00:00 | |
| WB7NNF | 2026-09-04 19:32:39 | 48.20337 | -117.49056 | 24° | 46km/h | 17172m | -8.7m/s | -50.7°C | 0% | 0hPa | 0V | 00:00:00 | 00:00:00 | 00:00:00 | |
| WB7NNF | 2026-09-04 19:32:18 | 48.20135 | -117.49120 | 355° | 37km/h | 17356m | -8.6m/s | -49.8°C | 0% | 0hPa | 0V | 00:00:00 | 00:00:00 | 00:00:00 | |
| WB7NNF | 2026-09-04 19:31:57 | 48.19939 | -117.49070 | 350° | 42km/h | 17530m | -8.6m/s | -50.7°C | 0% | 0hPa | 0V | 00:00:00 | 00:00:00 | 00:00:00 | |
| WB7NNF | 2026-09-04 19:31:37 | 48.19711 | -117.49011 | 351° | 51km/h | 17713m | -8.6m/s | -50.0°C | 0% | 0hPa | 0V | 00:00:00 | 00:00:00 | 00:00:00 | |
| WB7NNF | 2026-09-04 19:31:16 | 48.19437 | -117.48977 | 6° | 58km/h | 17890m | -8.9m/s | -50.7°C | 0% | 0hPa | 0V | 00:00:00 | 00:00:00 | 00:00:00 | |
| WB7NNF | 2026-09-04 19:30:56 | 48.19138 | -117.49024 | 14° | 51km/h | 18078m | -9.1m/s | -49.8°C | 0% | 0hPa | 0V | 00:00:00 | 00:00:00 | 00:00:00 | |
| WB7NNF | 2026-09-04 19:30:32 | 48.18948 | -117.49158 | 42° | 24km/h | 18288m | -9.4m/s | -49.6°C | 0% | 0hPa | 0V | 00:00:00 | 00:00:00 | 00:00:00 | |
| WB7NNF | 2026-09-04 19:30:11 | 48.18873 | -117.49245 | 25° | 11km/h | 18494m | -9.6m/s | -50.3°C | 0% | 0hPa | 0V | 00:00:00 | 00:00:00 | 00:00:00 | |
| WB7NNF | 2026-09-04 19:29:49 | 48.18797 | -117.49198 | 330° | 18km/h | 18698m | -9.9m/s | -51.1°C | 0% | 0hPa | 0V | 00:00:00 | 00:00:00 | 00:00:00 | |
| WB7NNF | 2026-09-04 19:29:27 | 48.18677 | -117.49087 | 339° | 31km/h | 18914m | -9.8m/s | -52.4°C | 0% | 0hPa | 0V | 00:00:00 | 00:00:00 | 00:00:00 | |
| WB7NNF | 2026-09-04 19:29:04 | 48.18538 | -117.49041 | 12° | 16km/h | 19155m | -10.1m/s | -52.1°C | 0% | 0hPa | 0V | 00:00:00 | 00:00:00 | 00:00:00 | |
| WB7NNF | 2026-09-04 19:27:50 | 48.18517 | -117.48858 | 345° | 16km/h | 19915m | -10.5m/s | -53.5°C | 0% | 0hPa | 0V | 00:00:00 | 00:00:00 | 00:00:00 | |
| WB7NNF | 2026-09-04 19:27:29 | 48.18400 | -117.48869 | 22° | 24km/h | 20129m | -10.2m/s | -54.2°C | 0% | 0hPa | 0V | 00:00:00 | 00:00:00 | 00:00:00 | |
| WB7NNF | 2026-09-04 19:26:53 | 48.18291 | -117.49097 | 114° | 22km/h | 20524m | -11.2m/s | -53.2°C | 0% | 0hPa | 0V | 00:00:00 | 00:00:00 | 00:00:00 | |
| WB7NNF | 2026-09-04 19:26:14 | 48.18371 | -117.49020 | 263° | 22km/h | 20976m | -10.6m/s | -52.0°C | 0% | 0hPa | 0V | 00:00:00 | 00:00:00 | 00:00:00 | |
| WB7NNF | 2026-09-04 19:25:53 | 48.18362 | -117.48849 | 290° | 27km/h | 21211m | -11.1m/s | -52.8°C | 0% | 0hPa | 0V | 00:00:00 | 00:00:00 | 00:00:00 | |
| WB7NNF | 2026-09-04 19:24:39 | 48.17965 | -117.48448 | 353° | 16km/h | 22141m | -13.4m/s | -53.3°C | 0% | 0hPa | 0V | 00:00:00 | 00:00:00 | 00:00:00 | |
| WB7NNF | 2026-09-04 19:24:18 | 48.17940 | -117.48454 | 232° | 9km/h | 22412m | -11.8m/s | -53.6°C | 0% | 0hPa | 0V | 00:00:00 | 00:00:00 | 00:00:00 | |
| WB7NNF | 2026-09-04 19:23:56 | 48.17952 | -117.48333 | 254° | 20km/h | 22703m | -13.2m/s | -54.0°C | 0% | 0hPa | 0V | 00:00:00 | 00:00:00 | 00:00:00 | |
| WB7NNF | 2026-09-04 19:23:35 | 48.17880 | -117.48224 | 303° | 16km/h | 22986m | -14.1m/s | -53.5°C | 0% | 0hPa | 0V | 00:00:00 | 00:00:00 | 00:00:00 | |
| WB7NNF | 2026-09-04 19:23:07 | 48.17792 | -117.48103 | 315° | 24km/h | 23356m | -13.1m/s | -52.9°C | 0% | 0hPa | 0V | 00:00:00 | 00:00:00 | 00:00:00 | |
| WB7NNF | 2026-09-04 19:22:47 | 48.17665 | -117.47961 | 359° | 33km/h | 23652m | -15.2m/s | -54.0°C | 0% | 0hPa | 0V | 00:00:00 | 00:00:00 | 00:00:00 | |
| WB7NNF | 2026-09-04 19:22:26 | 48.17579 | -117.47895 | 336° | 9km/h | 23945m | -15.7m/s | -52.6°C | 0% | 0hPa | 0V | 00:00:00 | 00:00:00 | 00:00:00 | |
| WB7NNF | 2026-09-04 19:22:06 | 48.17563 | -117.47745 | 276° | 20km/h | 24261m | -15.2m/s | -52.7°C | 0% | 0hPa | 0V | 00:00:00 | 00:00:00 | 00:00:00 | |
| WB7NNF | 2026-09-04 19:21:43 | 48.17568 | -117.47677 | 314° | 9km/h | 24599m | -15.9m/s | -52.3°C | 0% | 0hPa | 0V | 00:00:00 | 00:00:00 | 00:00:00 | |
| WB7NNF | 2026-09-04 19:21:23 | 48.17534 | -117.47606 | 344° | 7km/h | 24933m | -15.9m/s | -51.2°C | 0% | 0hPa | 0V | 00:00:00 | 00:00:00 | 00:00:00 | |
| WB7NNF | 2026-09-04 19:20:42 | 48.17496 | -117.47668 | 197° | 4km/h | 25614m | -16.7m/s | -49.4°C | 0% | 0hPa | 0V | 00:00:00 | 00:00:00 | 00:00:00 | |
| WB7NNF | 2026-09-04 19:20:21 | 48.17525 | -117.47610 | 258° | 11km/h | 25955m | -16.9m/s | -49.8°C | 0% | 0hPa | 0V | 00:00:00 | 00:00:00 | 00:00:00 | |
| WB7NNF | 2026-09-04 19:20:01 | 48.17499 | -117.47411 | 293° | 40km/h | 26320m | -17.5m/s | -49.7°C | 0% | 0hPa | 0V | 00:00:00 | 00:00:00 | 00:00:00 | |
| WB7NNF | 2026-09-04 19:19:40 | 48.17433 | -117.47314 | 11° | 9km/h | 26676m | -17.8m/s | -49.3°C | 0% | 0hPa | 0V | 00:00:00 | 00:00:00 | 00:00:00 | |
| WB7NNF | 2026-09-04 19:19:20 | 48.17432 | -117.47341 | 201° | 11km/h | 27064m | -18.6m/s | -47.1°C | 0% | 0hPa | 0V | 00:00:00 | 00:00:00 | 00:00:00 | |
| WB7NNF | 2026-09-04 19:18:59 | 48.17470 | -117.47186 | 278° | 29km/h | 27448m | -18.4m/s | -48.0°C | 0% | 0hPa | 0V | 00:00:00 | 00:00:00 | 00:00:00 | |
| WB7NNF | 2026-09-04 19:18:39 | 48.17471 | -117.47083 | 300° | 13km/h | 27861m | -19.5m/s | -48.3°C | 0% | 0hPa | 0V | 00:00:00 | 00:00:00 | 00:00:00 | |
| WB7NNF | 2026-09-04 19:18:18 | 48.17428 | -117.46975 | 304° | 16km/h | 28292m | -20.1m/s | -47.0°C | 0% | 0hPa | 0V | 00:00:00 | 00:00:00 | 00:00:00 | |
| WB7NNF | 2026-09-04 19:17:57 | 48.17434 | -117.46981 | 153° | 18km/h | 28718m | -21.8m/s | -46.9°C | 0% | 0hPa | 0V | 00:00:00 | 00:00:00 | 00:00:00 | |
| WB7NNF | 2026-09-04 19:17:37 | 48.17503 | -117.47051 | 174° | 13km/h | 29180m | -22.7m/s | -45.7°C | 0% | 0hPa | 0V | 00:00:00 | 00:00:00 | 00:00:00 | |
| WB7NNF | 2026-09-04 19:17:16 | 48.17579 | -117.47081 | 58° | 5km/h | 29632m | -22.7m/s | -45.6°C | 0% | 0hPa | 0V | 00:00:00 | 00:00:00 | 00:00:00 | |
| WB7NNF | 2026-09-04 19:16:56 | 48.17587 | -117.47107 | 146° | 13km/h | 30122m | -25.2m/s | -45.2°C | 0% | 0hPa | 0V | 00:00:00 | 00:00:00 | 00:00:00 | |
| WB7NNF | 2026-09-04 19:16:35 | 48.17568 | -117.47091 | 64° | 4km/h | 30644m | -24.3m/s | -44.3°C | 0% | 0hPa | 0V | 00:00:00 | 00:00:00 | 00:00:00 | |
| WB7NNF | 2026-09-04 19:16:13 | 48.17532 | -117.47023 | 300° | 20km/h | 31208m | -27.2m/s | -42.9°C | 0% | 0hPa | 0V | 00:00:00 | 00:00:00 | 00:00:00 | |
| WB7NNF | 2026-09-04 19:15:52 | 48.17462 | -117.46943 | 348° | 22km/h | 31819m | -27.0m/s | -41.9°C | 0% | 0hPa | 0V | 00:00:00 | 00:00:00 | 00:00:00 | |
| WB7NNF | 2026-09-04 19:15:32 | 48.17387 | -117.46892 | 11° | 26km/h | 32419m | -27.4m/s | -41.1°C | 0% | 0hPa | 0V | 00:00:00 | 00:00:00 | 00:00:00 | |
| WB7NNF | 2026-09-04 19:15:10 | 48.17224 | -117.46943 | 301° | 20km/h | 33018m | -28.7m/s | -38.3°C | 0% | 0hPa | 0V | 00:00:00 | 00:00:00 | 00:00:00 | |
| WB7NNF | 2026-09-04 19:14:50 | 48.17148 | -117.47088 | 76° | 11km/h | 33541m | -32.1m/s | -39.3°C | 0% | 0hPa | 0V | 00:00:00 | 00:00:00 | 00:00:00 | |
| WB7NNF | 2026-09-04 19:14:30 | 48.17152 | -117.47293 | 152° | 40km/h | 33775m | 4.7m/s | -38.8°C | 0% | 0hPa | 0V | 00:00:00 | 00:00:00 | 00:00:00 | |
| WB7NNF | 2026-09-04 19:14:09 | 48.17056 | -117.47440 | 49° | 77km/h | 33632m | 4.4m/s | -39.5°C | 0% | 0hPa | 0V | 00:00:00 | 00:00:00 | 00:00:00 | |
| WB7NNF | 2026-09-04 19:13:47 | 48.17019 | -117.47565 | 284° | 40km/h | 33491m | 8.8m/s | -39.7°C | 0% | 0hPa | 0V | 00:00:00 | 00:00:00 | 00:00:00 | |
| WB7NNF | 2026-09-04 19:13:27 | 48.16927 | -117.47659 | 91° | 68km/h | 33352m | 5.8m/s | -39.6°C | 0% | 0hPa | 0V | 00:00:00 | 00:00:00 | 00:00:00 | |
| WB7NNF | 2026-09-04 19:13:06 | 48.16932 | -117.47793 | 264° | 38km/h | 33218m | 3.5m/s | -39.1°C | 0% | 0hPa | 0V | 00:00:00 | 00:00:00 | 00:00:00 | |
| WB7NNF | 2026-09-04 19:12:46 | 48.16860 | -117.47905 | 76° | 64km/h | 33082m | 5.2m/s | -38.6°C | 0% | 0hPa | 0V | 00:00:00 | 00:00:00 | 00:00:00 | |
| WB7NNF | 2026-09-04 19:12:25 | 48.16774 | -117.48027 | 185° | 7km/h | 32960m | 9.3m/s | -39.0°C | 0% | 0hPa | 0V | 00:00:00 | 00:00:00 | 00:00:00 | |
| WB7NNF | 2026-09-04 19:12:05 | 48.16594 | -117.48080 | 9° | 78km/h | 32830m | 7.9m/s | -40.1°C | 0% | 0hPa | 0V | 00:00:00 | 00:00:00 | 00:00:00 | |
| WB7NNF | 2026-09-04 19:11:44 | 48.16406 | -117.48134 | 66° | 53km/h | 32704m | 4.2m/s | -40.7°C | 0% | 0hPa | 0V | 00:00:00 | 00:00:00 | 00:00:00 | |
| WB7NNF | 2026-09-04 19:11:24 | 48.16286 | -117.48132 | 306° | 53km/h | 32579m | 7.8m/s | -41.5°C | 0% | 0hPa | 0V | 00:00:00 | 00:00:00 | 00:00:00 | |
| WB7NNF | 2026-09-04 19:11:03 | 48.16163 | -117.48103 | 353° | 31km/h | 32463m | 5.9m/s | -41.4°C | 0% | 0hPa | 0V | 00:00:00 | 00:00:00 | 00:00:00 | |
| WB7NNF | 2026-09-04 19:10:43 | 48.16069 | -117.48124 | 14° | 16km/h | 32333m | 0.7m/s | -41.8°C | 0% | 0hPa | 0V | 00:00:00 | 00:00:00 | 00:00:00 | |
| WB7NNF | 2026-09-04 19:10:22 | 48.15980 | -117.48045 | 303° | 53km/h | 32206m | 10.4m/s | -41.8°C | 0% | 0hPa | 0V | 00:00:00 | 00:00:00 | 00:00:00 | |
| WB7NNF | 2026-09-04 19:09:41 | 48.15819 | -117.47778 | 221° | 11km/h | 31949m | 2.7m/s | -41.8°C | 0% | 0hPa | 0V | 00:00:00 | 00:00:00 | 00:00:00 | |
| WB7NNF | 2026-09-04 19:09:20 | 48.15793 | -117.47694 | 300° | 46km/h | 31822m | 6.0m/s | -41.4°C | 0% | 0hPa | 0V | 00:00:00 | 00:00:00 | 00:00:00 | |
| WB7NNF | 2026-09-04 19:09:00 | 48.15729 | -117.47684 | 77° | 27km/h | 31690m | 8.3m/s | -41.8°C | 0% | 0hPa | 0V | 00:00:00 | 00:00:00 | 00:00:00 | |
| WB7NNF | 2026-09-04 19:08:39 | 48.15652 | -117.47702 | 318° | 9km/h | 31569m | 7.2m/s | -42.2°C | 0% | 0hPa | 0V | 00:00:00 | 00:00:00 | 00:00:00 | |
| WB7NNF | 2026-09-04 19:08:19 | 48.15547 | -117.47623 | 324° | 27km/h | 31435m | 6.2m/s | -42.7°C | 0% | 0hPa | 0V | 00:00:00 | 00:00:00 | 00:00:00 | |
| WB7NNF | 2026-09-04 19:07:58 | 48.15484 | -117.47597 | 23° | 20km/h | 31308m | 1.5m/s | -43.2°C | 0% | 0hPa | 0V | 00:00:00 | 00:00:00 | 00:00:00 | |
| WB7NNF | 2026-09-04 19:07:38 | 48.15423 | -117.47510 | 254° | 33km/h | 31180m | 3.0m/s | -43.8°C | 0% | 0hPa | 0V | 00:00:00 | 00:00:00 | 00:00:00 | |
| WB7NNF | 2026-09-04 19:07:17 | 48.15403 | -117.47458 | 104° | 31km/h | 31053m | 5.2m/s | -44.0°C | 0% | 0hPa | 0V | 00:00:00 | 00:00:00 | 00:00:00 | |
| WB7NNF | 2026-09-04 19:06:57 | 48.15368 | -117.47406 | 288° | 31km/h | 30919m | 6.7m/s | -44.8°C | 0% | 0hPa | 0V | 00:00:00 | 00:00:00 | 00:00:00 | |
| WB7NNF | 2026-09-04 19:06:36 | 48.15401 | -117.47415 | 145° | 26km/h | 30788m | 0.9m/s | -45.2°C | 0% | 0hPa | 0V | 00:00:00 | 00:00:00 | 00:00:00 | |
| WB7NNF | 2026-09-04 19:06:14 | 48.15409 | -117.47389 | 300° | 44km/h | 30655m | 4.5m/s | -45.1°C | 0% | 0hPa | 0V | 00:00:00 | 00:00:00 | 00:00:00 | |
| WB7NNF | 2026-09-04 19:05:54 | 48.15381 | -117.47308 | 105° | 4km/h | 30531m | 10.1m/s | -45.7°C | 0% | 0hPa | 0V | 00:00:00 | 00:00:00 | 00:00:00 | |
| WB7NNF | 2026-09-04 19:05:33 | 48.15377 | -117.47277 | 317° | 16km/h | 30385m | 4.9m/s | -45.7°C | 0% | 0hPa | 0V | 00:00:00 | 00:00:00 | 00:00:00 | |
| WB7NNF | 2026-09-04 19:05:12 | 48.15412 | -117.47302 | 332° | 13km/h | 30250m | 6.8m/s | -45.6°C | 0% | 0hPa | 0V | 00:00:00 | 00:00:00 | 00:00:00 | |
| WB7NNF | 2026-09-04 19:04:52 | 48.15464 | -117.47337 | 124° | 47km/h | 30111m | 5.4m/s | -45.4°C | 0% | 0hPa | 0V | 00:00:00 | 00:00:00 | 00:00:00 | |
| WB7NNF | 2026-09-04 19:04:31 | 48.15515 | -117.47351 | 268° | 15km/h | 29983m | 8.9m/s | -45.5°C | 0% | 0hPa | 0V | 00:00:00 | 00:00:00 | 00:00:00 | |
| WB7NNF | 2026-09-04 19:04:11 | 48.15524 | -117.47351 | 139° | 31km/h | 29842m | 4.7m/s | -45.6°C | 0% | 0hPa | 0V | 00:00:00 | 00:00:00 | 00:00:00 | |
| WB7NNF | 2026-09-04 19:03:50 | 48.15517 | -117.47319 | 101° | 2km/h | 29715m | 6.2m/s | -45.2°C | 0% | 0hPa | 0V | 00:00:00 | 00:00:00 | 00:00:00 | |
| WB7NNF | 2026-09-04 19:03:30 | 48.15545 | -117.47324 | 22° | 18km/h | 29579m | 4.4m/s | -45.3°C | 0% | 0hPa | 0V | 00:00:00 | 00:00:00 | 00:00:00 | |
| WB7NNF | 2026-09-04 19:03:09 | 48.15638 | -117.47321 | 113° | 38km/h | 29447m | 5.0m/s | -45.1°C | 0% | 0hPa | 0V | 00:00:00 | 00:00:00 | 00:00:00 | |
| WB7NNF | 2026-09-04 19:02:48 | 48.15725 | -117.47360 | 266° | 29km/h | 29325m | 4.5m/s | -45.0°C | 0% | 0hPa | 0V | 00:00:00 | 00:00:00 | 00:00:00 | |
| WB7NNF | 2026-09-04 19:02:28 | 48.15790 | -117.47398 | 114° | 44km/h | 29201m | 3.9m/s | -45.6°C | 0% | 0hPa | 0V | 00:00:00 | 00:00:00 | 00:00:00 | |
| WB7NNF | 2026-09-04 19:02:07 | 48.15821 | -117.47424 | 291° | 20km/h | 29083m | 5.3m/s | -46.4°C | 0% | 0hPa | 0V | 00:00:00 | 00:00:00 | 00:00:00 | |
| WB7NNF | 2026-09-04 19:01:47 | 48.15884 | -117.47446 | 127° | 13km/h | 28960m | 8.3m/s | -46.8°C | 0% | 0hPa | 0V | 00:00:00 | 00:00:00 | 00:00:00 | |
| WB7NNF | 2026-09-04 19:01:26 | 48.15928 | -117.47510 | 148° | 29km/h | 28837m | 9.3m/s | -46.9°C | 0% | 0hPa | 0V | 00:00:00 | 00:00:00 | 00:00:00 | |
| WB7NNF | 2026-09-04 19:01:06 | 48.15987 | -117.47557 | 55° | 20km/h | 28705m | 5.5m/s | -46.9°C | 0% | 0hPa | 0V | 00:00:00 | 00:00:00 | 00:00:00 | |
| WB7NNF | 2026-09-04 19:00:44 | 48.15998 | -117.47591 | 197° | 26km/h | 28573m | 6.8m/s | -46.9°C | 0% | 0hPa | 0V | 00:00:00 | 00:00:00 | 00:00:00 | |
| WB7NNF | 2026-09-04 19:00:23 | 48.15986 | -117.47574 | 239° | 9km/h | 28434m | 5.1m/s | -47.1°C | 0% | 0hPa | 0V | 00:00:00 | 00:00:00 | 00:00:00 | |
| WB7NNF | 2026-09-04 19:00:03 | 48.15937 | -117.47436 | 278° | 22km/h | 28302m | 8.8m/s | -47.2°C | 0% | 0hPa | 0V | 00:00:00 | 00:00:00 | 00:00:00 | |
| WB7NNF | 2026-09-04 18:59:42 | 48.15878 | -117.47287 | 323° | 16km/h | 28170m | 6.5m/s | -47.8°C | 0% | 0hPa | 0V | 00:00:00 | 00:00:00 | 00:00:00 | |
| WB7NNF | 2026-09-04 18:59:21 | 48.15862 | -117.47185 | 342° | 29km/h | 28040m | 5.6m/s | -48.4°C | 0% | 0hPa | 0V | 00:00:00 | 00:00:00 | 00:00:00 | |
| WB7NNF | 2026-09-04 18:59:01 | 48.15853 | -117.47079 | 295° | 16km/h | 27909m | 7.9m/s | -48.1°C | 0% | 0hPa | 0V | 00:00:00 | 00:00:00 | 00:00:00 | |
| WB7NNF | 2026-09-04 18:58:40 | 48.15852 | -117.47021 | 200° | 16km/h | 27791m | 6.2m/s | -47.4°C | 0% | 0hPa | 0V | 00:00:00 | 00:00:00 | 00:00:00 | |
| WB7NNF | 2026-09-04 18:58:20 | 48.15861 | -117.47015 | 358° | 31km/h | 27669m | 4.4m/s | -47.7°C | 0% | 0hPa | 0V | 00:00:00 | 00:00:00 | 00:00:00 | |
| WB7NNF | 2026-09-04 18:57:59 | 48.15880 | -117.46995 | 313° | 18km/h | 27550m | 1.2m/s | -47.7°C | 0% | 0hPa | 0V | 00:00:00 | 00:00:00 | 00:00:00 | |
| WB7NNF | 2026-09-04 18:57:37 | 48.15899 | -117.46843 | 25° | 13km/h | 27423m | 4.1m/s | -48.0°C | 0% | 0hPa | 0V | 00:00:00 | 00:00:00 | 00:00:00 | |
| WB7NNF | 2026-09-04 18:57:16 | 48.15942 | -117.46721 | 216° | 44km/h | 27310m | 5.7m/s | -47.6°C | 0% | 0hPa | 0V | 00:00:00 | 00:00:00 | 00:00:00 | |
| WB7NNF | 2026-09-04 18:56:56 | 48.16010 | -117.46654 | 205° | 26km/h | 27192m | 1.8m/s | -47.6°C | 0% | 0hPa | 0V | 00:00:00 | 00:00:00 | 00:00:00 | |
| WB7NNF | 2026-09-04 18:56:35 | 48.16049 | -117.46712 | 172° | 20km/h | 27076m | 7.9m/s | -48.8°C | 0% | 0hPa | 0V | 00:00:00 | 00:00:00 | 00:00:00 | |
| WB7NNF | 2026-09-04 18:56:15 | 48.16079 | -117.46849 | 84° | 55km/h | 26954m | 4.6m/s | -49.5°C | 0% | 0hPa | 0V | 00:00:00 | 00:00:00 | 00:00:00 | |
| WB7NNF | 2026-09-04 18:55:54 | 48.16065 | -117.46930 | 115° | 16km/h | 26832m | 8.3m/s | -49.5°C | 0% | 0hPa | 0V | 00:00:00 | 00:00:00 | 00:00:00 | |
| WB7NNF | 2026-09-04 18:55:34 | 48.16042 | -117.46980 | 2° | 15km/h | 26702m | 5.8m/s | -49.0°C | 0% | 0hPa | 0V | 00:00:00 | 00:00:00 | 00:00:00 | |
| WB7NNF | 2026-09-04 18:55:13 | 48.15988 | -117.46982 | 336° | 31km/h | 26570m | 8.3m/s | -49.0°C | 0% | 0hPa | 0V | 00:00:00 | 00:00:00 | 00:00:00 | |
| WB7NNF | 2026-09-04 18:54:52 | 48.15920 | -117.46916 | 54° | 7km/h | 26447m | 8.3m/s | -49.5°C | 0% | 0hPa | 0V | 00:00:00 | 00:00:00 | 00:00:00 | |
| WB7NNF | 2026-09-04 18:54:32 | 48.15866 | -117.46716 | 284° | 38km/h | 26320m | 6.6m/s | -49.8°C | 0% | 0hPa | 0V | 00:00:00 | 00:00:00 | 00:00:00 | |
| WB7NNF | 2026-09-04 18:54:11 | 48.15842 | -117.46441 | 266° | 47km/h | 26201m | 4.5m/s | -49.6°C | 0% | 0hPa | 0V | 00:00:00 | 00:00:00 | 00:00:00 | |
| WB7NNF | 2026-09-04 18:53:51 | 48.15839 | -117.46252 | 223° | 15km/h | 26073m | 7.5m/s | -49.9°C | 0% | 0hPa | 0V | 00:00:00 | 00:00:00 | 00:00:00 | |
| WB7NNF | 2026-09-04 18:53:30 | 48.15849 | -117.46140 | 254° | 27km/h | 25959m | 6.2m/s | -50.1°C | 0% | 0hPa | 0V | 00:00:00 | 00:00:00 | 00:00:00 | |
| WB7NNF | 2026-09-04 18:53:10 | 48.15884 | -117.46016 | 234° | 26km/h | 25836m | 4.8m/s | -50.3°C | 0% | 0hPa | 0V | 00:00:00 | 00:00:00 | 00:00:00 | |
| WB7NNF | 2026-09-04 18:52:49 | 48.15914 | -117.45920 | 243° | 26km/h | 25719m | 4.8m/s | -49.8°C | 0% | 0hPa | 0V | 00:00:00 | 00:00:00 | 00:00:00 | |
| WB7NNF | 2026-09-04 18:52:29 | 48.15932 | -117.45863 | 168° | 13km/h | 25603m | 3.1m/s | -49.8°C | 0% | 0hPa | 0V | 00:00:00 | 00:00:00 | 00:00:00 | |
| WB7NNF | 2026-09-04 18:52:08 | 48.15899 | -117.45891 | 347° | 16km/h | 25496m | 6.0m/s | -50.5°C | 0% | 0hPa | 0V | 00:00:00 | 00:00:00 | 00:00:00 | |
| WB7NNF | 2026-09-04 18:51:48 | 48.15877 | -117.45899 | 205° | 13km/h | 25379m | 6.4m/s | -50.4°C | 0% | 0hPa | 0V | 00:00:00 | 00:00:00 | 00:00:00 | |
| WB7NNF | 2026-09-04 18:51:27 | 48.15848 | -117.45872 | 304° | 16km/h | 25265m | 4.3m/s | -50.9°C | 0% | 0hPa | 0V | 00:00:00 | 00:00:00 | 00:00:00 | |
| WB7NNF | 2026-09-04 18:50:46 | 48.15742 | -117.45812 | 6° | 15km/h | 25029m | 7.5m/s | -51.3°C | 0% | 0hPa | 0V | 00:00:00 | 00:00:00 | 00:00:00 | |
| WB7NNF | 2026-09-04 18:50:26 | 48.15678 | -117.45740 | 329° | 15km/h | 24909m | 6.6m/s | -51.4°C | 0% | 0hPa | 0V | 00:00:00 | 00:00:00 | 00:00:00 | |
| WB7NNF | 2026-09-04 18:50:05 | 48.15642 | -117.45604 | 295° | 20km/h | 24786m | 6.5m/s | -50.9°C | 0% | 0hPa | 0V | 00:00:00 | 00:00:00 | 00:00:00 | |
| WB7NNF | 2026-09-04 18:49:44 | 48.15603 | -117.45425 | 261° | 18km/h | 24669m | 7.1m/s | -51.0°C | 0% | 0hPa | 0V | 00:00:00 | 00:00:00 | 00:00:00 | |
| WB7NNF | 2026-09-04 18:49:24 | 48.15538 | -117.45277 | 253° | 31km/h | 24548m | 4.6m/s | -51.4°C | 0% | 0hPa | 0V | 00:00:00 | 00:00:00 | 00:00:00 | |
| WB7NNF | 2026-09-04 18:49:03 | 48.15512 | -117.45180 | 266° | 24km/h | 24434m | 6.1m/s | -51.8°C | 0% | 0hPa | 0V | 00:00:00 | 00:00:00 | 00:00:00 | |
| WB7NNF | 2026-09-04 18:48:43 | 48.15503 | -117.45125 | 263° | 20km/h | 24315m | 5.8m/s | -52.1°C | 0% | 0hPa | 0V | 00:00:00 | 00:00:00 | 00:00:00 | |
| WB7NNF | 2026-09-04 18:48:22 | 48.15499 | -117.44994 | 285° | 22km/h | 24201m | 4.3m/s | -51.9°C | 0% | 0hPa | 0V | 00:00:00 | 00:00:00 | 00:00:00 | |
| WB7NNF | 2026-09-04 18:48:02 | 48.15504 | -117.44807 | 271° | 35km/h | 24085m | 5.9m/s | -52.2°C | 0% | 0hPa | 0V | 00:00:00 | 00:00:00 | 00:00:00 | |
| WB7NNF | 2026-09-04 18:47:41 | 48.15461 | -117.44635 | 331° | 15km/h | 23975m | 8.0m/s | -52.3°C | 0% | 0hPa | 0V | 00:00:00 | 00:00:00 | 00:00:00 | |
| WB7NNF | 2026-09-04 18:47:19 | 48.15393 | -117.44562 | 36° | 15km/h | 23858m | 6.1m/s | -52.3°C | 0% | 0hPa | 0V | 00:00:00 | 00:00:00 | 00:00:00 | |
| WB7NNF | 2026-09-04 18:46:58 | 48.15323 | -117.44484 | 325° | 24km/h | 23750m | 4.9m/s | -53.3°C | 0% | 0hPa | 0V | 00:00:00 | 00:00:00 | 00:00:00 | |
| WB7NNF | 2026-09-04 18:46:38 | 48.15203 | -117.44376 | 335° | 24km/h | 23634m | 5.3m/s | -53.4°C | 0% | 0hPa | 0V | 00:00:00 | 00:00:00 | 00:00:00 | |
| WB7NNF | 2026-09-04 18:46:17 | 48.15067 | -117.44279 | 330° | 16km/h | 23522m | 6.1m/s | -52.8°C | 0% | 0hPa | 0V | 00:00:00 | 00:00:00 | 00:00:00 | |
| WB7NNF | 2026-09-04 18:45:57 | 48.14964 | -117.44112 | 281° | 33km/h | 23405m | 5.4m/s | -52.7°C | 0% | 0hPa | 0V | 00:00:00 | 00:00:00 | 00:00:00 | |
| WB7NNF | 2026-09-04 18:45:36 | 48.14919 | -117.43992 | 273° | 13km/h | 23289m | 5.6m/s | -53.3°C | 0% | 0hPa | 0V | 00:00:00 | 00:00:00 | 00:00:00 | |
| WB7NNF | 2026-09-04 18:45:16 | 48.14864 | -117.43906 | 341° | 33km/h | 23168m | 3.8m/s | -53.6°C | 0% | 0hPa | 0V | 00:00:00 | 00:00:00 | 00:00:00 | |
| WB7NNF | 2026-09-04 18:44:55 | 48.14808 | -117.43806 | 323° | 24km/h | 23052m | 5.6m/s | -53.5°C | 0% | 0hPa | 0V | 00:00:00 | 00:00:00 | 00:00:00 | |
| WB7NNF | 2026-09-04 18:44:35 | 48.14757 | -117.43710 | 294° | 15km/h | 22927m | 6.5m/s | -52.9°C | 0% | 0hPa | 0V | 00:00:00 | 00:00:00 | 00:00:00 | |
| WB7NNF | 2026-09-04 18:44:14 | 48.14705 | -117.43603 | 319° | 5km/h | 22813m | 4.5m/s | -52.8°C | 0% | 0hPa | 0V | 00:00:00 | 00:00:00 | 00:00:00 | |
| WB7NNF | 2026-09-04 18:43:54 | 48.14674 | -117.43464 | 205° | 15km/h | 22696m | 5.1m/s | -53.6°C | 0% | 0hPa | 0V | 00:00:00 | 00:00:00 | 00:00:00 | |
| WB7NNF | 2026-09-04 18:43:12 | 48.14740 | -117.43270 | 240° | 7km/h | 22477m | 5.1m/s | -53.3°C | 0% | 0hPa | 0V | 00:00:00 | 00:00:00 | 00:00:00 | |
| WB7NNF | 2026-09-04 18:42:52 | 48.14779 | -117.43191 | 207° | 5km/h | 22368m | 6.8m/s | -52.6°C | 0% | 0hPa | 0V | 00:00:00 | 00:00:00 | 00:00:00 | |
| WB7NNF | 2026-09-04 18:42:31 | 48.14796 | -117.43166 | 170° | 4km/h | 22264m | 4.9m/s | -52.2°C | 0% | 0hPa | 0V | 00:00:00 | 00:00:00 | 00:00:00 | |
| WB7NNF | 2026-09-04 18:42:11 | 48.14782 | -117.43166 | 216° | 7km/h | 22157m | 6.1m/s | -52.4°C | 0% | 0hPa | 0V | 00:00:00 | 00:00:00 | 00:00:00 | |
| WB7NNF | 2026-09-04 18:41:50 | 48.14708 | -117.43159 | 315° | 13km/h | 22054m | 5.6m/s | -52.7°C | 0% | 0hPa | 0V | 00:00:00 | 00:00:00 | 00:00:00 | |
| WB7NNF | 2026-09-04 18:41:30 | 48.14583 | -117.43130 | 9° | 27km/h | 21941m | 5.0m/s | -52.3°C | 0% | 0hPa | 0V | 00:00:00 | 00:00:00 | 00:00:00 | |
| WB7NNF | 2026-09-04 18:41:09 | 48.14471 | -117.43069 | 320° | 31km/h | 21835m | 6.5m/s | -52.1°C | 0% | 0hPa | 0V | 00:00:00 | 00:00:00 | 00:00:00 | |
| WB7NNF | 2026-09-04 18:40:49 | 48.14390 | -117.42934 | 311° | 15km/h | 21721m | 4.1m/s | -52.7°C | 0% | 0hPa | 0V | 00:00:00 | 00:00:00 | 00:00:00 | |
| WB7NNF | 2026-09-04 18:40:28 | 48.14301 | -117.42773 | 313° | 38km/h | 21614m | 6.2m/s | -52.4°C | 0% | 0hPa | 0V | 00:00:00 | 00:00:00 | 00:00:00 | |
| WB7NNF | 2026-09-04 18:40:08 | 48.14126 | -117.42582 | 336° | 38km/h | 21499m | 4.3m/s | -52.6°C | 0% | 0hPa | 0V | 00:00:00 | 00:00:00 | 00:00:00 | |
| WB7NNF | 2026-09-04 18:39:47 | 48.13981 | -117.42380 | 272° | 35km/h | 21388m | 5.1m/s | -52.9°C | 0% | 0hPa | 0V | 00:00:00 | 00:00:00 | 00:00:00 | |
| WB7NNF | 2026-09-04 18:39:27 | 48.13892 | -117.42154 | 286° | 33km/h | 21267m | 6.3m/s | -52.7°C | 0% | 0hPa | 0V | 00:00:00 | 00:00:00 | 00:00:00 | |
| WB7NNF | 2026-09-04 18:39:06 | 48.13862 | -117.41967 | 239° | 18km/h | 21156m | 6.6m/s | -52.4°C | 0% | 0hPa | 0V | 00:00:00 | 00:00:00 | 00:00:00 | |
| WB7NNF | 2026-09-04 18:38:46 | 48.13874 | -117.41802 | 257° | 22km/h | 21044m | 5.8m/s | -52.1°C | 0% | 0hPa | 0V | 00:00:00 | 00:00:00 | 00:00:00 | |
| WB7NNF | 2026-09-04 18:38:25 | 48.13914 | -117.41675 | 238° | 20km/h | 20931m | 5.4m/s | -52.1°C | 0% | 0hPa | 0V | 00:00:00 | 00:00:00 | 00:00:00 | |
| WB7NNF | 2026-09-04 18:38:04 | 48.13958 | -117.41564 | 217° | 18km/h | 20829m | 3.5m/s | -53.2°C | 0% | 0hPa | 0V | 00:00:00 | 00:00:00 | 00:00:00 | |
| WB7NNF | 2026-09-04 18:37:44 | 48.14001 | -117.41491 | 143° | 22km/h | 20723m | 3.8m/s | -52.8°C | 0% | 0hPa | 0V | 00:00:00 | 00:00:00 | 00:00:00 | |
| WB7NNF | 2026-09-04 18:37:23 | 48.14064 | -117.41522 | 145° | 18km/h | 20624m | 4.3m/s | -53.1°C | 0% | 0hPa | 0V | 00:00:00 | 00:00:00 | 00:00:00 | |
| WB7NNF | 2026-09-04 18:37:03 | 48.14116 | -117.41621 | 173° | 9km/h | 20522m | 3.4m/s | -52.8°C | 0% | 0hPa | 0V | 00:00:00 | 00:00:00 | 00:00:00 | |
| WB7NNF | 2026-09-04 18:36:42 | 48.14109 | -117.41740 | 79° | 15km/h | 20420m | 4.4m/s | -53.6°C | 0% | 0hPa | 0V | 00:00:00 | 00:00:00 | 00:00:00 | |
| WB7NNF | 2026-09-04 18:36:22 | 48.14021 | -117.41879 | 36° | 47km/h | 20315m | 5.2m/s | -54.1°C | 0% | 0hPa | 0V | 00:00:00 | 00:00:00 | 00:00:00 | |
| WB7NNF | 2026-09-04 18:36:01 | 48.13899 | -117.41970 | 43° | 35km/h | 20209m | 4.0m/s | -54.0°C | 0% | 0hPa | 0V | 00:00:00 | 00:00:00 | 00:00:00 | |
| WB7NNF | 2026-09-04 18:35:41 | 48.13752 | -117.42044 | 11° | 20km/h | 20099m | 6.5m/s | -54.2°C | 0% | 0hPa | 0V | 00:00:00 | 00:00:00 | 00:00:00 | |
| WB7NNF | 2026-09-04 18:35:20 | 48.13625 | -117.42059 | 1° | 16km/h | 19998m | 5.4m/s | -53.9°C | 0% | 0hPa | 0V | 00:00:00 | 00:00:00 | 00:00:00 | |
| WB7NNF | 2026-09-04 18:35:00 | 48.13540 | -117.42031 | 20° | 7km/h | 19888m | 6.7m/s | -53.5°C | 0% | 0hPa | 0V | 00:00:00 | 00:00:00 | 00:00:00 | |
| WB7NNF | 2026-09-04 18:34:39 | 48.13507 | -117.41982 | 324° | 15km/h | 19783m | 5.6m/s | -53.2°C | 0% | 0hPa | 0V | 00:00:00 | 00:00:00 | 00:00:00 | |
| WB7NNF | 2026-09-04 18:34:19 | 48.13503 | -117.41936 | 183° | 4km/h | 19677m | 4.2m/s | -52.7°C | 0% | 0hPa | 0V | 00:00:00 | 00:00:00 | 00:00:00 | |
| WB7NNF | 2026-09-04 18:33:58 | 48.13531 | -117.41920 | 116° | 16km/h | 19572m | 5.7m/s | -52.5°C | 0% | 0hPa | 0V | 00:00:00 | 00:00:00 | 00:00:00 | |
| WB7NNF | 2026-09-04 18:33:38 | 48.13578 | -117.41984 | 157° | 4km/h | 19466m | 3.4m/s | -51.8°C | 0% | 0hPa | 0V | 00:00:00 | 00:00:00 | 00:00:00 | |
| WB7NNF | 2026-09-04 18:33:17 | 48.13621 | -117.42046 | 127° | 15km/h | 19363m | 5.2m/s | -51.8°C | 0% | 0hPa | 0V | 00:00:00 | 00:00:00 | 00:00:00 | |
| WB7NNF | 2026-09-04 18:32:57 | 48.13595 | -117.42106 | 2° | 7km/h | 19259m | 5.5m/s | -51.7°C | 0% | 0hPa | 0V | 00:00:00 | 00:00:00 | 00:00:00 | |
| WB7NNF | 2026-09-04 18:32:36 | 48.13522 | -117.42131 | 352° | 33km/h | 19159m | 6.3m/s | -51.6°C | 0% | 0hPa | 0V | 00:00:00 | 00:00:00 | 00:00:00 | |
| WB7NNF | 2026-09-04 18:32:16 | 48.13404 | -117.42106 | 340° | 26km/h | 19047m | 4.3m/s | -50.8°C | 0% | 0hPa | 0V | 00:00:00 | 00:00:00 | 00:00:00 | |
| WB7NNF | 2026-09-04 18:31:55 | 48.13264 | -117.42035 | 336° | 29km/h | 18941m | 6.1m/s | -52.1°C | 0% | 0hPa | 0V | 00:00:00 | 00:00:00 | 00:00:00 | |
| WB7NNF | 2026-09-04 18:31:34 | 48.13104 | -117.41925 | 330° | 44km/h | 18843m | 5.9m/s | -51.7°C | 0% | 0hPa | 0V | 00:00:00 | 00:00:00 | 00:00:00 | |
| WB7NNF | 2026-09-04 18:31:14 | 48.12965 | -117.41776 | 332° | 31km/h | 18738m | 6.0m/s | -51.0°C | 0% | 0hPa | 0V | 00:00:00 | 00:00:00 | 00:00:00 | |
| WB7NNF | 2026-09-04 18:30:52 | 48.12847 | -117.41677 | 344° | 22km/h | 18634m | 5.5m/s | -50.6°C | 0% | 0hPa | 0V | 00:00:00 | 00:00:00 | 00:00:00 | |
| WB7NNF | 2026-09-04 18:30:31 | 48.12719 | -117.41634 | 339° | 24km/h | 18528m | 4.1m/s | -50.3°C | 0% | 0hPa | 0V | 00:00:00 | 00:00:00 | 00:00:00 | |
| WB7NNF | 2026-09-04 18:30:11 | 48.12585 | -117.41632 | 3° | 20km/h | 18420m | 4.3m/s | -50.4°C | 0% | 0hPa | 0V | 00:00:00 | 00:00:00 | 00:00:00 | |
| WB7NNF | 2026-09-04 18:29:50 | 48.12414 | -117.41664 | 5° | 53km/h | 18317m | 5.7m/s | -50.3°C | 0% | 0hPa | 0V | 00:00:00 | 00:00:00 | 00:00:00 | |
| WB7NNF | 2026-09-04 18:29:29 | 48.12200 | -117.41715 | 9° | 55km/h | 18212m | 5.7m/s | -50.0°C | 0% | 0hPa | 0V | 00:00:00 | 00:00:00 | 00:00:00 | |
| WB7NNF | 2026-09-04 18:29:07 | 48.11952 | -117.41783 | 5° | 49km/h | 18105m | 5.7m/s | -50.2°C | 0% | 0hPa | 0V | 00:00:00 | 00:00:00 | 00:00:00 | |
| WB7NNF | 2026-09-04 18:28:47 | 48.11652 | -117.41852 | 6° | 62km/h | 17997m | 6.2m/s | -51.5°C | 0% | 0hPa | 0V | 00:00:00 | 00:00:00 | 00:00:00 | |
| WB7NNF | 2026-09-04 18:28:26 | 48.11341 | -117.41875 | 356° | 58km/h | 17890m | 5.8m/s | -50.9°C | 0% | 0hPa | 0V | 00:00:00 | 00:00:00 | 00:00:00 | |
| WB7NNF | 2026-09-04 18:28:05 | 48.11071 | -117.41857 | 349° | 57km/h | 17784m | 5.1m/s | -51.2°C | 0% | 0hPa | 0V | 00:00:00 | 00:00:00 | 00:00:00 | |
| WB7NNF | 2026-09-04 18:27:45 | 48.10788 | -117.41789 | 346° | 49km/h | 17676m | 5.7m/s | -51.1°C | 0% | 0hPa | 0V | 00:00:00 | 00:00:00 | 00:00:00 | |
| WB7NNF | 2026-09-04 18:27:24 | 48.10563 | -117.41691 | 349° | 47km/h | 17572m | 4.6m/s | -50.8°C | 0% | 0hPa | 0V | 00:00:00 | 00:00:00 | 00:00:00 | |
| WB7NNF | 2026-09-04 18:27:04 | 48.10345 | -117.41586 | 334° | 31km/h | 17466m | 4.7m/s | -50.2°C | 0% | 0hPa | 0V | 00:00:00 | 00:00:00 | 00:00:00 | |
| WB7NNF | 2026-09-04 18:26:42 | 48.10164 | -117.41543 | 347° | 31km/h | 17358m | 6.1m/s | -49.6°C | 0% | 0hPa | 0V | 00:00:00 | 00:00:00 | 00:00:00 | |
| WB7NNF | 2026-09-04 18:26:21 | 48.09997 | -117.41562 | 12° | 27km/h | 17252m | 6.3m/s | -49.8°C | 0% | 0hPa | 0V | 00:00:00 | 00:00:00 | 00:00:00 | |
| WB7NNF | 2026-09-04 18:26:01 | 48.09818 | -117.41685 | 37° | 46km/h | 17148m | 4.2m/s | -50.1°C | 0% | 0hPa | 0V | 00:00:00 | 00:00:00 | 00:00:00 | |
| WB7NNF | 2026-09-04 18:25:19 | 48.09432 | -117.41942 | 19° | 57km/h | 16932m | 4.7m/s | -50.3°C | 0% | 0hPa | 0V | 00:00:00 | 00:00:00 | 00:00:00 | |
| WB7NNF | 2026-09-04 18:24:59 | 48.09131 | -117.42042 | 9° | 62km/h | 16827m | 6.1m/s | -50.1°C | 0% | 0hPa | 0V | 00:00:00 | 00:00:00 | 00:00:00 | |
| WB7NNF | 2026-09-04 18:24:38 | 48.08771 | -117.42110 | 4° | 64km/h | 16717m | 5.8m/s | -51.1°C | 0% | 0hPa | 0V | 00:00:00 | 00:00:00 | 00:00:00 | |
| WB7NNF | 2026-09-04 18:24:16 | 48.08427 | -117.42193 | 17° | 78km/h | 16609m | 4.1m/s | -52.1°C | 0% | 0hPa | 0V | 00:00:00 | 00:00:00 | 00:00:00 | |
| WB7NNF | 2026-09-04 18:23:55 | 48.08099 | -117.42268 | 5° | 58km/h | 16509m | 5.7m/s | -51.5°C | 0% | 0hPa | 0V | 00:00:00 | 00:00:00 | 00:00:00 | |
| WB7NNF | 2026-09-04 18:23:35 | 48.07781 | -117.42305 | 11° | 71km/h | 16408m | 4.0m/s | -51.0°C | 0% | 0hPa | 0V | 00:00:00 | 00:00:00 | 00:00:00 | |
| WB7NNF | 2026-09-04 18:23:14 | 48.07509 | -117.42308 | 360° | 44km/h | 16313m | 5.9m/s | -50.5°C | 0% | 0hPa | 0V | 00:00:00 | 00:00:00 | 00:00:00 | |
| WB7NNF | 2026-09-04 18:22:33 | 48.07053 | -117.42284 | 356° | 29km/h | 16113m | 4.9m/s | -49.7°C | 0% | 0hPa | 0V | 00:00:00 | 00:00:00 | 00:00:00 | |
| WB7NNF | 2026-09-04 18:22:13 | 48.06864 | -117.42308 | 1° | 29km/h | 16013m | 5.1m/s | -49.4°C | 0% | 0hPa | 0V | 00:00:00 | 00:00:00 | 00:00:00 | |
| WB7NNF | 2026-09-04 18:21:52 | 48.06645 | -117.42371 | 9° | 53km/h | 15917m | 3.4m/s | -49.0°C | 0% | 0hPa | 0V | 00:00:00 | 00:00:00 | 00:00:00 | |
| WB7NNF | 2026-09-04 18:21:32 | 48.06431 | -117.42452 | 8° | 37km/h | 15823m | 5.0m/s | -49.0°C | 0% | 0hPa | 0V | 00:00:00 | 00:00:00 | 00:00:00 | |
| WB7NNF | 2026-09-04 18:21:11 | 48.06236 | -117.42525 | 14° | 40km/h | 15719m | 5.0m/s | -48.8°C | 0% | 0hPa | 0V | 00:00:00 | 00:00:00 | 00:00:00 | |
| WB7NNF | 2026-09-04 18:20:49 | 48.06017 | -117.42653 | 23° | 44km/h | 15614m | 3.9m/s | -48.4°C | 0% | 0hPa | 0V | 00:00:00 | 00:00:00 | 00:00:00 | |
| WB7NNF | 2026-09-04 18:20:29 | 48.05747 | -117.42797 | 25° | 62km/h | 15512m | 5.6m/s | -49.2°C | 0% | 0hPa | 0V | 00:00:00 | 00:00:00 | 00:00:00 | |
| WB7NNF | 2026-09-04 18:20:08 | 48.05458 | -117.42907 | 15° | 62km/h | 15413m | 3.6m/s | -49.2°C | 0% | 0hPa | 0V | 00:00:00 | 00:00:00 | 00:00:00 | |
| WB7NNF | 2026-09-04 18:19:47 | 48.05168 | -117.42924 | 353° | 57km/h | 15323m | 5.2m/s | -49.5°C | 0% | 0hPa | 0V | 00:00:00 | 00:00:00 | 00:00:00 | |
| WB7NNF | 2026-09-04 18:19:27 | 48.04863 | -117.42920 | 8° | 64km/h | 15234m | 4.0m/s | -49.9°C | 0% | 0hPa | 0V | 00:00:00 | 00:00:00 | 00:00:00 | |
| WB7NNF | 2026-09-04 18:19:06 | 48.04598 | -117.42940 | 1° | 53km/h | 15136m | 4.4m/s | -49.8°C | 0% | 0hPa | 0V | 00:00:00 | 00:00:00 | 00:00:00 | |
| WB7NNF | 2026-09-04 18:18:23 | 48.04111 | -117.42905 | 9° | 37km/h | 14925m | 3.9m/s | 0°C | 0% | 0hPa | 0V | 00:00:00 | 00:00:00 | 00:00:00 | |
| WB7NNF | 2026-09-04 18:17:57 | 48.03814 | -117.43039 | 17° | 47km/h | 14793m | 5.3m/s | -49.1°C | 0% | 0hPa | 0V | 00:00:00 | 00:00:00 | 00:00:00 | |
| WB7NNF | 2026-09-04 18:17:36 | 48.03581 | -117.43183 | 27° | 53km/h | 14690m | 4.8m/s | -48.8°C | 0% | 0hPa | 0V | 00:00:00 | 00:00:00 | 00:00:00 | |
| WB7NNF | 2026-09-04 18:17:16 | 48.03316 | -117.43336 | 10° | 46km/h | 14583m | 5.4m/s | -48.3°C | 0% | 0hPa | 0V | 00:00:00 | 00:00:00 | 00:00:00 | |
| WB7NNF | 2026-09-04 18:16:55 | 48.03035 | -117.43423 | 5° | 51km/h | 14480m | 5.1m/s | -47.9°C | 0% | 0hPa | 0V | 00:00:00 | 00:00:00 | 00:00:00 | |
| WB7NNF | 2026-09-04 18:16:31 | 48.02711 | -117.43501 | 12° | 51km/h | 14367m | 5.4m/s | -47.1°C | 0% | 0hPa | 0V | 00:00:00 | 00:00:00 | 00:00:00 | |
| WB7NNF | 2026-09-04 18:16:10 | 48.02462 | -117.43568 | 5° | 49km/h | 14263m | 4.5m/s | -47.3°C | 0% | 0hPa | 0V | 00:00:00 | 00:00:00 | 00:00:00 | |
| WB7NNF | 2026-09-04 18:15:50 | 48.02164 | -117.43639 | 10° | 60km/h | 14161m | 4.4m/s | -47.2°C | 0% | 0hPa | 0V | 00:00:00 | 00:00:00 | 00:00:00 | |
| WB7NNF | 2026-09-04 18:15:29 | 48.01833 | -117.43706 | 1° | 60km/h | 14064m | 3.7m/s | -47.5°C | 0% | 0hPa | 0V | 00:00:00 | 00:00:00 | 00:00:00 | |
| WB7NNF | 2026-09-04 18:15:07 | 48.01482 | -117.43829 | 14° | 55km/h | 13959m | 4.8m/s | -47.0°C | 0% | 0hPa | 0V | 00:00:00 | 00:00:00 | 00:00:00 | |
| WB7NNF | 2026-09-04 18:14:46 | 48.01167 | -117.44004 | 22° | 60km/h | 13867m | 3.9m/s | -46.8°C | 0% | 0hPa | 0V | 00:00:00 | 00:00:00 | 00:00:00 | |
| WB7NNF | 2026-09-04 18:14:20 | 48.00760 | -117.44219 | 22° | 60km/h | 13760m | 4.2m/s | -46.8°C | 0% | 0hPa | 0V | 00:00:00 | 00:00:00 | 00:00:00 | |
| WB7NNF | 2026-09-04 18:13:53 | 48.00339 | -117.44367 | 11° | 51km/h | 13639m | 3.4m/s | -46.7°C | 0% | 0hPa | 0V | 00:00:00 | 00:00:00 | 00:00:00 | |
| WB7NNF | 2026-09-04 18:13:32 | 48.00037 | -117.44434 | 3° | 47km/h | 13540m | 4.3m/s | -46.3°C | 0% | 0hPa | 0V | 00:00:00 | 00:00:00 | 00:00:00 | |
| WB7NNF | 2026-09-04 18:13:11 | 47.99786 | -117.44503 | 361° | 60km/h | 13453m | 4.7m/s | -45.9°C | 0% | 0hPa | 0V | 00:00:00 | 00:00:00 | 00:00:00 | |
| WB7NNF | 2026-09-04 18:12:51 | 47.99493 | -117.44623 | 20° | 49km/h | 13360m | 4.4m/s | -45.7°C | 0% | 0hPa | 0V | 00:00:00 | 00:00:00 | 00:00:00 | |
| WB7NNF | 2026-09-04 18:12:30 | 47.99201 | -117.44765 | 20° | 55km/h | 13268m | 5.4m/s | -45.7°C | 0% | 0hPa | 0V | 00:00:00 | 00:00:00 | 00:00:00 | |
| WB7NNF | 2026-09-04 18:12:10 | 47.98910 | -117.44933 | 22° | 71km/h | 13172m | 5.3m/s | -45.5°C | 0% | 0hPa | 0V | 00:00:00 | 00:00:00 | 00:00:00 | |
| WB7NNF | 2026-09-04 18:11:49 | 47.98593 | -117.45139 | 30° | 66km/h | 13075m | 4.6m/s | -45.2°C | 0% | 0hPa | 0V | 00:00:00 | 00:00:00 | 00:00:00 | |
| WB7NNF | 2026-09-04 18:11:08 | 47.97919 | -117.45568 | 23° | 60km/h | 12876m | 4.2m/s | -44.7°C | 0% | 0hPa | 0V | 00:00:00 | 00:00:00 | 00:00:00 | |
| WB7NNF | 2026-09-04 18:10:48 | 47.97552 | -117.45751 | 10° | 78km/h | 12767m | 4.4m/s | -44.5°C | 0% | 0hPa | 0V | 00:00:00 | 00:00:00 | 00:00:00 | |
| WB7NNF | 2026-09-04 18:10:27 | 47.97186 | -117.45897 | 14° | 68km/h | 12662m | 4.9m/s | -44.2°C | 0% | 0hPa | 0V | 00:00:00 | 00:00:00 | 00:00:00 | |
| WB7NNF | 2026-09-04 18:10:06 | 47.96841 | -117.46071 | 18° | 73km/h | 12563m | 3.8m/s | -44.1°C | 0% | 0hPa | 0V | 00:00:00 | 00:00:00 | 00:00:00 | |
| WB7NNF | 2026-09-04 18:09:46 | 47.96455 | -117.46278 | 28° | 80km/h | 12462m | 3.2m/s | -43.7°C | 0% | 0hPa | 0V | 00:00:00 | 00:00:00 | 00:00:00 | |
| WB7NNF | 2026-09-04 18:09:25 | 47.96110 | -117.46465 | 16° | 80km/h | 12371m | 5.3m/s | -44.0°C | 0% | 0hPa | 0V | 00:00:00 | 00:00:00 | 00:00:00 | |
| WB7NNF | 2026-09-04 18:09:05 | 47.95721 | -117.46629 | 25° | 77km/h | 12277m | 4.7m/s | -44.1°C | 0% | 0hPa | 0V | 00:00:00 | 00:00:00 | 00:00:00 | |
| WB7NNF | 2026-09-04 18:08:44 | 47.95375 | -117.46781 | 22° | 66km/h | 12191m | 4.8m/s | -43.5°C | 0% | 0hPa | 0V | 00:00:00 | 00:00:00 | 00:00:00 | |
| WB7NNF | 2026-09-04 18:08:24 | 47.95004 | -117.46928 | 15° | 69km/h | 12104m | 4.2m/s | -43.0°C | 0% | 0hPa | 0V | 00:00:00 | 00:00:00 | 00:00:00 | |
| WB7NNF | 2026-09-04 18:08:03 | 47.94651 | -117.47118 | 20° | 71km/h | 12020m | 3.2m/s | -43.0°C | 0% | 0hPa | 0V | 00:00:00 | 00:00:00 | 00:00:00 | |
| WB7NNF | 2026-09-04 18:07:43 | 47.94250 | -117.47310 | 18° | 86km/h | 11931m | 4.2m/s | -43.0°C | 0% | 0hPa | 0V | 00:00:00 | 00:00:00 | 00:00:00 | |
| WB7NNF | 2026-09-04 18:07:22 | 47.93851 | -117.47482 | 22° | 86km/h | 11846m | 4.3m/s | -42.9°C | 0% | 0hPa | 0V | 00:00:00 | 00:00:00 | 00:00:00 | |
| WB7NNF | 2026-09-04 18:06:41 | 47.93027 | -117.47891 | 23° | 75km/h | 11661m | 3.6m/s | -43.1°C | 0% | 0hPa | 0V | 00:00:00 | 00:00:00 | 00:00:00 | |
| WB7NNF | 2026-09-04 18:06:21 | 47.92607 | -117.48096 | 21° | 77km/h | 11566m | 4.3m/s | -43.3°C | 0% | 0hPa | 0V | 00:00:00 | 00:00:00 | 00:00:00 | |
| WB7NNF | 2026-09-04 18:06:00 | 47.92180 | -117.48292 | 20° | 89km/h | 11470m | 4.1m/s | -43.6°C | 0% | 0hPa | 0V | 00:00:00 | 00:00:00 | 00:00:00 | |
| WB7NNF | 2026-09-04 18:05:40 | 47.91722 | -117.48480 | 5° | 86km/h | 11357m | 4.7m/s | -43.3°C | 0% | 0hPa | 0V | 00:00:00 | 00:00:00 | 00:00:00 | |
| WB7NNF | 2026-09-04 18:05:19 | 47.91308 | -117.48579 | 14° | 77km/h | 11249m | 4.5m/s | -43.8°C | 0% | 0hPa | 0V | 00:00:00 | 00:00:00 | 00:00:00 | |
| WB7NNF | 2026-09-04 18:04:57 | 47.90884 | -117.48745 | 19° | 77km/h | 11136m | 4.7m/s | -43.5°C | 0% | 0hPa | 0V | 00:00:00 | 00:00:00 | 00:00:00 | |
| WB7NNF | 2026-09-04 18:04:36 | 47.90475 | -117.48985 | 23° | 95km/h | 11036m | 4.0m/s | -44.0°C | 0% | 0hPa | 0V | 00:00:00 | 00:00:00 | 00:00:00 | |
| WB7NNF | 2026-09-04 18:04:16 | 47.90012 | -117.49270 | 28° | 93km/h | 10937m | 3.8m/s | -43.8°C | 0% | 0hPa | 0V | 00:00:00 | 00:00:00 | 00:00:00 | |
| WB7NNF | 2026-09-04 18:03:55 | 47.89536 | -117.49521 | 24° | 89km/h | 10846m | 4.0m/s | -43.5°C | 0% | 0hPa | 0V | 00:00:00 | 00:00:00 | 00:00:00 | |
| WB7NNF | 2026-09-04 18:03:34 | 47.89083 | -117.49714 | 17° | 104km/h | 10746m | 3.5m/s | -42.9°C | 0% | 0hPa | 0V | 00:00:00 | 00:00:00 | 00:00:00 | |
| WB7NNF | 2026-09-04 18:03:14 | 47.88676 | -117.49887 | 15° | 78km/h | 10626m | 4.0m/s | -42.2°C | 0% | 0hPa | 0V | 00:00:00 | 00:00:00 | 00:00:00 | |
| WB7NNF | 2026-09-04 18:02:52 | 47.88290 | -117.50034 | 15° | 77km/h | 10532m | 4.8m/s | -41.8°C | 0% | 0hPa | 0V | 00:00:00 | 00:00:00 | 00:00:00 | |
| WB7NNF | 2026-09-04 18:02:31 | 47.87903 | -117.50199 | 15° | 77km/h | 10432m | 3.6m/s | -41.7°C | 0% | 0hPa | 0V | 00:00:00 | 00:00:00 | 00:00:00 | |
| WB7NNF | 2026-09-04 18:02:10 | 47.87536 | -117.50371 | 15° | 77km/h | 10344m | 3.9m/s | -41.5°C | 0% | 0hPa | 0V | 00:00:00 | 00:00:00 | 00:00:00 | |
| WB7NNF | 2026-09-04 18:01:29 | 47.86802 | -117.50794 | 32° | 78km/h | 10164m | 3.6m/s | -41.1°C | 0% | 0hPa | 0V | 00:00:00 | 00:00:00 | 00:00:00 | |
| WB7NNF | 2026-09-04 18:01:09 | 47.86406 | -117.51038 | 22° | 78km/h | 10069m | 4.8m/s | -40.7°C | 0% | 0hPa | 0V | 00:00:00 | 00:00:00 | 00:00:00 | |
| WB7NNF | 2026-09-04 18:00:48 | 47.86006 | -117.51242 | 15° | 84km/h | 9979m | 5.2m/s | -40.2°C | 0% | 0hPa | 0V | 00:00:00 | 00:00:00 | 00:00:00 | |
| WB7NNF | 2026-09-04 18:00:28 | 47.85556 | -117.51427 | 13° | 88km/h | 9888m | 4.1m/s | -40.3°C | 0% | 0hPa | 0V | 00:00:00 | 00:00:00 | 00:00:00 | |
| WB7NNF | 2026-09-04 18:00:08 | 47.85123 | -117.51559 | 12° | 77km/h | 9803m | 4.1m/s | -40.4°C | 0% | 0hPa | 0V | 00:00:00 | 00:00:00 | 00:00:00 | |
| WB7NNF | 2026-09-04 17:59:47 | 47.84675 | -117.51710 | 17° | 89km/h | 9713m | 5.4m/s | -40.6°C | 0% | 0hPa | 0V | 00:00:00 | 00:00:00 | 00:00:00 | |
| WB7NNF | 2026-09-04 17:59:26 | 47.84261 | -117.51897 | 23° | 95km/h | 9623m | 4.7m/s | -40.3°C | 0% | 0hPa | 0V | 00:00:00 | 00:00:00 | 00:00:00 | |
| WB7NNF | 2026-09-04 17:58:45 | 47.83423 | -117.52464 | 23° | 86km/h | 9438m | 4.7m/s | -40.1°C | 0% | 0hPa | 0V | 00:00:00 | 00:00:00 | 00:00:00 | |
| WB7NNF | 2026-09-04 17:58:25 | 47.82980 | -117.52785 | 25° | 97km/h | 9347m | 6.0m/s | -39.7°C | 0% | 0hPa | 0V | 00:00:00 | 00:00:00 | 00:00:00 | |
| WB7NNF | 2026-09-04 17:58:04 | 47.82564 | -117.53087 | 27° | 102km/h | 9262m | 3.3m/s | -39.3°C | 0% | 0hPa | 0V | 00:00:00 | 00:00:00 | 00:00:00 | |
| WB7NNF | 2026-09-04 17:57:44 | 47.82114 | -117.53393 | 25° | 93km/h | 9176m | 4.5m/s | -38.8°C | 0% | 0hPa | 0V | 00:00:00 | 00:00:00 | 00:00:00 | |
| WB7NNF | 2026-09-04 17:57:23 | 47.81686 | -117.53661 | 33° | 86km/h | 9095m | 3.3m/s | -39.1°C | 0% | 0hPa | 0V | 00:00:00 | 00:00:00 | 00:00:00 | |
| WB7NNF | 2026-09-04 17:57:03 | 47.81230 | -117.53962 | 25° | 93km/h | 8998m | 3.0m/s | -39.0°C | 0% | 0hPa | 0V | 00:00:00 | 00:00:00 | 00:00:00 | |
| WB7NNF | 2026-09-04 17:56:42 | 47.80796 | -117.54318 | 33° | 95km/h | 8911m | 4.8m/s | -38.6°C | 0% | 0hPa | 0V | 00:00:00 | 00:00:00 | 00:00:00 | |
| WB7NNF | 2026-09-04 17:56:22 | 47.80334 | -117.54660 | 25° | 93km/h | 8827m | 3.2m/s | -38.2°C | 0% | 0hPa | 0V | 00:00:00 | 00:00:00 | 00:00:00 | |
| WB7NNF | 2026-09-04 17:56:01 | 47.79917 | -117.54990 | 28° | 99km/h | 8738m | 5.2m/s | -38.0°C | 0% | 0hPa | 0V | 00:00:00 | 00:00:00 | 00:00:00 | |
| WB7NNF | 2026-09-04 17:55:41 | 47.79495 | -117.55350 | 30° | 91km/h | 8656m | 3.8m/s | -38.3°C | 0% | 0hPa | 0V | 00:00:00 | 00:00:00 | 00:00:00 | |
| WB7NNF | 2026-09-04 17:55:20 | 47.79099 | -117.55682 | 31° | 91km/h | 8567m | 3.6m/s | -38.3°C | 0% | 0hPa | 0V | 00:00:00 | 00:00:00 | 00:00:00 | |
| WB7NNF | 2026-09-04 17:54:58 | 47.78686 | -117.56005 | 25° | 88km/h | 8478m | 5.3m/s | -38.1°C | 0% | 0hPa | 0V | 00:00:00 | 00:00:00 | 00:00:00 | |
| WB7NNF | 2026-09-04 17:54:37 | 47.78312 | -117.56289 | 31° | 89km/h | 8393m | 4.4m/s | -38.4°C | 0% | 0hPa | 0V | 00:00:00 | 00:00:00 | 00:00:00 | |
| WB7NNF | 2026-09-04 17:54:17 | 47.77925 | -117.56609 | 31° | 93km/h | 8312m | 4.6m/s | -38.2°C | 0% | 0hPa | 0V | 00:00:00 | 00:00:00 | 00:00:00 | |
| WB7NNF | 2026-09-04 17:53:56 | 47.77560 | -117.56928 | 34° | 89km/h | 8221m | 7.5m/s | -38.1°C | 0% | 0hPa | 0V | 00:00:00 | 00:00:00 | 00:00:00 | |
| WB7NNF | 2026-09-04 17:53:36 | 47.77182 | -117.57242 | 26° | 99km/h | 8096m | 5.6m/s | -37.1°C | 0% | 0hPa | 0V | 00:00:00 | 00:00:00 | 00:00:00 | |
| WB7NNF | 2026-09-04 17:53:15 | 47.76842 | -117.57506 | 24° | 66km/h | 7998m | 3.2m/s | -37.8°C | 0% | 0hPa | 0V | 00:00:00 | 00:00:00 | 00:00:00 | |
| WB7NNF | 2026-09-04 17:52:55 | 47.76527 | -117.57732 | 31° | 62km/h | 7908m | 3.3m/s | -37.7°C | 0% | 0hPa | 0V | 00:00:00 | 00:00:00 | 00:00:00 | |
| WB7NNF | 2026-09-04 17:52:34 | 47.76254 | -117.57932 | 32° | 64km/h | 7821m | 4.8m/s | -37.8°C | 0% | 0hPa | 0V | 00:00:00 | 00:00:00 | 00:00:00 | |
| WB7NNF | 2026-09-04 17:52:14 | 47.75949 | -117.58153 | 22° | 55km/h | 7731m | 8.4m/s | -37.6°C | 0% | 0hPa | 0V | 00:00:00 | 00:00:00 | 00:00:00 | |
| WB7NNF | 2026-09-04 17:51:53 | 47.75680 | -117.58401 | 38° | 53km/h | 7617m | 3.4m/s | -37.0°C | 0% | 0hPa | 0V | 00:00:00 | 00:00:00 | 00:00:00 | |
| WB7NNF | 2026-09-04 17:51:33 | 47.75423 | -117.58634 | 33° | 37km/h | 7533m | 4.9m/s | -37.0°C | 0% | 0hPa | 0V | 00:00:00 | 00:00:00 | 00:00:00 | |
| WB7NNF | 2026-09-04 17:51:12 | 47.75148 | -117.58819 | 41° | 57km/h | 7431m | 5.3m/s | -36.3°C | 0% | 0hPa | 0V | 00:00:00 | 00:00:00 | 00:00:00 | |
| WB7NNF | 2026-09-04 17:50:51 | 47.74948 | -117.58984 | 44° | 20km/h | 7310m | 5.6m/s | -36.0°C | 0% | 0hPa | 0V | 00:00:00 | 00:00:00 | 00:00:00 | |
| WB7NNF | 2026-09-04 17:50:31 | 47.74797 | -117.59097 | 7° | 37km/h | 7208m | 6.0m/s | -35.6°C | 0% | 0hPa | 0V | 00:00:00 | 00:00:00 | 00:00:00 | |
| WB7NNF | 2026-09-04 17:50:10 | 47.74636 | -117.59208 | 26° | 24km/h | 7101m | 7.2m/s | -34.7°C | 0% | 0hPa | 0V | 00:00:00 | 00:00:00 | 00:00:00 | |
| WB7NNF | 2026-09-04 17:49:50 | 47.74478 | -117.59280 | 356° | 46km/h | 6982m | 4.2m/s | -33.7°C | 0% | 0hPa | 0V | 00:00:00 | 00:00:00 | 00:00:00 | |
| WB7NNF | 2026-09-04 17:49:29 | 47.74344 | -117.59370 | 39° | 22km/h | 6867m | 3.1m/s | -32.6°C | 0% | 0hPa | 0V | 00:00:00 | 00:00:00 | 00:00:00 | |
| WB7NNF | 2026-09-04 17:49:07 | 47.74204 | -117.59395 | 343° | 24km/h | 6760m | 3.6m/s | -31.7°C | 0% | 0hPa | 0V | 00:00:00 | 00:00:00 | 00:00:00 | |
| WB7NNF | 2026-09-04 17:48:46 | 47.74060 | -117.59402 | 14° | 22km/h | 6675m | 3.5m/s | -30.9°C | 0% | 0hPa | 0V | 00:00:00 | 00:00:00 | 00:00:00 | |
| WB7NNF | 2026-09-04 17:48:26 | 47.73919 | -117.59407 | 1° | 31km/h | 6584m | 5.7m/s | -30.2°C | 0% | 0hPa | 0V | 00:00:00 | 00:00:00 | 00:00:00 | |
| WB7NNF | 2026-09-04 17:48:05 | 47.73777 | -117.59438 | 7° | 35km/h | 6493m | 5.4m/s | -29.3°C | 0% | 0hPa | 0V | 00:00:00 | 00:00:00 | 00:00:00 | |
| WB7NNF | 2026-09-04 17:47:45 | 47.73615 | -117.59478 | 35° | 16km/h | 6400m | 2.5m/s | -28.5°C | 0% | 0hPa | 0V | 00:00:00 | 00:00:00 | 00:00:00 | |
| WB7NNF | 2026-09-04 17:47:24 | 47.73486 | -117.59553 | 344° | 18km/h | 6286m | 4.1m/s | -27.6°C | 0% | 0hPa | 0V | 00:00:00 | 00:00:00 | 00:00:00 | |
| WB7NNF | 2026-09-04 17:46:43 | 47.73174 | -117.59656 | 9° | 38km/h | 6096m | 4.2m/s | -25.9°C | 0% | 0hPa | 0V | 00:00:00 | 00:00:00 | 00:00:00 | |
| WB7NNF | 2026-09-04 17:46:21 | 47.72974 | -117.59718 | 2° | 40km/h | 6011m | 3.4m/s | -25.1°C | 0% | 0hPa | 0V | 00:00:00 | 00:00:00 | 00:00:00 | |
| WB7NNF | 2026-09-04 17:46:00 | 47.72783 | -117.59788 | 349° | 44km/h | 5921m | 5.2m/s | -24.7°C | 0% | 0hPa | 0V | 00:00:00 | 00:00:00 | 00:00:00 | |
| WB7NNF | 2026-09-04 17:45:38 | 47.72572 | -117.59837 | 20° | 53km/h | 5807m | 5.1m/s | -23.7°C | 0% | 0hPa | 0V | 00:00:00 | 00:00:00 | 00:00:00 | |
| WB7NNF | 2026-09-04 17:45:17 | 47.72348 | -117.59907 | 356° | 44km/h | 5706m | 4.1m/s | -22.8°C | 0% | 0hPa | 0V | 00:00:00 | 00:00:00 | 00:00:00 |